Time;durP1;ratioP1;P1;durP2;ratioP2;P2;SDS_P1;SDS_P2;PMS_P1;PMS_P2;Temp;Humidity;BMP_temperature;BMP_pressure;BME280_temperature;BME280_humidity;BME280_pressure;Samples;Min_cycle;Max_cycle;Signal;HPM_P1;HPM_P2
2021/07/08 00:01:55;;;;;;;;;;;15.80;99.90;;;;;;5058538;28;19905;-81
2021/07/08 00:04:20;;;;;;;;;;;15.80;99.90;;;;;;5057855;28;19913;-80
2021/07/08 00:06:46;;;;;;;;;;;15.80;99.90;;;;;;5057260;28;19920;-80
2021/07/08 00:09:12;;;;;;;;;;;15.80;99.90;;;;;;5058468;28;19913;-79
2021/07/08 00:11:37;;;;;;;;;;;15.80;99.90;;;;;;5057990;28;19920;-79
2021/07/08 00:14:03;;;;;;;;;;;15.80;99.90;;;;;;5059253;28;19904;-82
2021/07/08 00:16:29;;;;;;;;;;;15.70;99.90;;;;;;5051741;28;20105;-77
2021/07/08 00:18:55;;;;;;;;;;;15.70;99.90;;;;;;5042919;28;19905;-81
2021/07/08 00:21:21;;;;;;;;;;;15.70;99.90;;;;;;5041316;28;19924;-82
2021/07/08 00:26:31;;;;;;;;;;;15.70;99.90;;;;;;5040418;28;20392;-81
2021/07/08 00:28:56;;;;;;;;;;;15.80;99.90;;;;;;5039901;28;19909;-81
2021/07/08 00:31:22;;;;;;;;;;;15.80;99.90;;;;;;5038743;28;19913;-82
2021/07/08 00:33:48;;;;;;;;;;;15.80;99.90;;;;;;5037579;28;19913;-82
2021/07/08 00:36:13;;;;;;;;;;;15.90;99.90;;;;;;5038587;28;19924;-81
2021/07/08 00:38:39;;;;;;;;;;;15.80;99.90;;;;;;5039733;28;20295;-81
2021/07/08 00:41:05;;;;;;;;;;;15.90;99.90;;;;;;5037183;28;19913;-82
2021/07/08 00:43:31;;;;;;;;;;;15.90;99.90;;;;;;5035262;28;19964;-82
2021/07/08 00:45:57;;;;;;;;;;;15.90;99.90;;;;;;5034692;28;20008;-81
2021/07/08 00:48:23;;;;;;;;;;;15.90;99.90;;;;;;5034910;28;19909;-82
2021/07/08 00:50:48;;;;;;;;;;;15.90;99.90;;;;;;5036145;28;19920;-82
2021/07/08 00:53:15;;;;;;;;;;;15.90;99.90;;;;;;5032788;28;19917;-82
2021/07/08 00:55:42;;;;;;;;;;;15.90;99.90;;;;;;5031635;28;20461;-81
2021/07/08 00:58:09;;;;;;;;;;;15.90;99.90;;;;;;5033847;28;19916;-82
2021/07/08 01:00:35;;;;;;;;;;;15.90;99.90;;;;;;5033600;28;20293;-82
2021/07/08 01:03:07;;;;;;;;;;;16.00;99.90;;;;;;5032660;28;20357;-83
2021/07/08 01:05:34;;;;;;;;;;;16.00;99.90;;;;;;5031220;28;19909;-82
2021/07/08 01:07:59;;;;;;;;;;;16.10;99.90;;;;;;5034456;28;19909;-82
2021/07/08 01:10:25;;;;;;;;;;;16.10;99.90;;;;;;5033778;28;20278;-82
2021/07/08 01:12:51;;;;;;;;;;;16.10;99.90;;;;;;5032776;28;20011;-83
2021/07/08 01:15:17;;;;;;;;;;;16.10;99.90;;;;;;5033427;28;19952;-82
2021/07/08 01:17:44;;;;;;;;;;;16.20;99.90;;;;;;5031414;28;19912;-82
2021/07/08 01:20:11;;;;;;;;;;;16.20;99.90;;;;;;5032280;28;19913;-82
2021/07/08 01:22:36;;;;;;;;;;;16.30;99.90;;;;;;5032433;28;19915;-82
2021/07/08 01:25:03;;;;;;;;;;;16.30;99.90;;;;;;5032732;28;19909;-82
2021/07/08 01:27:29;;;;;;;;;;;16.30;99.90;;;;;;5032528;28;19917;-81
2021/07/08 01:29:55;;;;;;;;;;;16.30;99.90;;;;;;5033180;28;19963;-82
2021/07/08 01:32:20;;;;;;;;;;;16.30;99.90;;;;;;5033219;28;19909;-81
2021/07/08 01:34:46;;;;;;;;;;;16.30;99.90;;;;;;5035566;28;19932;-82
2021/07/08 01:37:12;;;;;;;;;;;16.20;99.90;;;;;;5034087;28;19916;-82
2021/07/08 01:39:38;;;;;;;;;;;16.20;99.90;;;;;;5033164;28;19913;-82
2021/07/08 01:42:04;;;;;;;;;;;16.10;99.90;;;;;;5041256;28;19921;-81
2021/07/08 01:44:29;;;;;;;;;;;16.10;99.90;;;;;;5036778;28;19932;-82
2021/07/08 01:46:55;;;;;;;;;;;16.10;99.90;;;;;;5038992;28;19915;-81
2021/07/08 01:49:20;;;;;;;;;;;16.00;99.90;;;;;;5033981;28;19924;-83
2021/07/08 01:51:47;;;;;;;;;;;16.00;99.90;;;;;;5033511;28;19916;-82
2021/07/08 01:54:14;;;;;;;;;;;16.00;99.90;;;;;;5032557;28;20010;-83
2021/07/08 01:56:40;;;;;;;;;;;16.00;99.90;;;;;;5034781;28;19917;-82
2021/07/08 01:59:06;;;;;;;;;;;16.00;99.90;;;;;;5031718;28;19924;-82
2021/07/08 02:01:31;;;;;;;;;;;16.00;99.90;;;;;;5031892;28;19916;-82
2021/07/08 02:03:57;;;;;;;;;;;16.00;99.90;;;;;;5031417;28;19916;-82
2021/07/08 02:06:22;;;;;;;;;;;16.00;99.90;;;;;;5028739;28;19916;-82
2021/07/08 02:08:48;;;;;;;;;;;16.00;99.90;;;;;;5030647;28;19913;-81
2021/07/08 02:11:14;;;;;;;;;;;16.10;99.90;;;;;;5031143;28;20369;-76
2021/07/08 02:13:40;;;;;;;;;;;16.10;99.90;;;;;;5035085;28;19915;-76
2021/07/08 02:16:07;;;;;;;;;;;16.00;99.90;;;;;;5037955;28;19937;-78
2021/07/08 02:18:32;;;;;;;;;;;16.00;99.90;;;;;;5033189;28;19913;-81
2021/07/08 02:20:58;;;;;;;;;;;16.10;99.90;;;;;;5038316;28;20340;-78
2021/07/08 02:23:23;;;;;;;;;;;16.00;99.90;;;;;;5032225;28;19917;-77
2021/07/08 02:25:49;;;;;;;;;;;16.00;99.90;;;;;;5034464;28;19963;-80
2021/07/08 02:28:14;;;;;;;;;;;16.00;99.90;;;;;;5033763;28;19955;-79
2021/07/08 02:30:40;;;;;;;;;;;16.00;99.90;;;;;;5037224;28;20323;-79
2021/07/08 02:33:06;;;;;;;;;;;15.90;99.90;;;;;;5044039;28;20439;-80
2021/07/08 02:35:32;;;;;;;;;;;15.90;99.90;;;;;;5039466;28;20381;-77
2021/07/08 02:37:58;;;;;;;;;;;15.90;99.90;;;;;;5035364;28;19913;-79
2021/07/08 02:40:30;;;;;;;;;;;15.90;99.90;;;;;;5037956;28;20212;-79
2021/07/08 02:42:56;;;;;;;;;;;15.80;99.90;;;;;;5040849;28;19909;-79
2021/07/08 02:45:23;;;;;;;;;;;15.80;99.90;;;;;;5040436;28;19971;-79
2021/07/08 02:47:49;;;;;;;;;;;15.80;99.90;;;;;;5038303;28;20333;-79
2021/07/08 02:50:15;;;;;;;;;;;15.80;99.90;;;;;;5039225;28;19932;-80
2021/07/08 02:52:41;;;;;;;;;;;15.80;99.90;;;;;;5041620;28;19955;-79
2021/07/08 02:55:07;;;;;;;;;;;15.70;99.90;;;;;;5042395;28;20397;-79
2021/07/08 02:57:33;;;;;;;;;;;15.70;99.90;;;;;;5041349;28;19913;-79
2021/07/08 02:59:58;;;;;;;;;;;15.70;99.90;;;;;;5043963;28;19917;-79
2021/07/08 03:02:23;;;;;;;;;;;15.60;99.90;;;;;;5045757;28;20342;-78
2021/07/08 03:04:50;;;;;;;;;;;15.60;99.90;;;;;;5045904;28;19909;-79
2021/07/08 03:07:16;;;;;;;;;;;15.60;99.90;;;;;;5044516;28;19916;-79
2021/07/08 03:09:42;;;;;;;;;;;15.60;99.90;;;;;;5044266;28;19924;-79
2021/07/08 03:12:07;;;;;;;;;;;15.60;99.90;;;;;;5045945;28;19909;-78
2021/07/08 03:14:33;;;;;;;;;;;15.60;99.90;;;;;;5053653;28;19948;-79
2021/07/08 03:16:59;;;;;;;;;;;15.60;99.90;;;;;;5048252;28;19935;-79
2021/07/08 03:19:24;;;;;;;;;;;15.50;99.90;;;;;;5045433;28;19913;-78
2021/07/08 03:21:50;;;;;;;;;;;15.50;99.90;;;;;;5045554;28;20325;-79
2021/07/08 03:24:15;;;;;;;;;;;15.50;99.90;;;;;;5055504;28;19917;-78
2021/07/08 03:26:41;;;;;;;;;;;15.50;99.90;;;;;;5067277;28;19980;-78
2021/07/08 03:29:06;;;;;;;;;;;15.50;99.90;;;;;;5053413;28;19952;-79
2021/07/08 03:31:32;;;;;;;;;;;15.40;99.90;;;;;;5052676;28;19920;-78
2021/07/08 03:33:57;;;;;;;;;;;15.40;99.90;;;;;;5050045;28;19905;-78
2021/07/08 03:36:23;;;;;;;;;;;15.50;99.90;;;;;;5049356;28;19909;-78
2021/07/08 03:38:48;;;;;;;;;;;15.40;99.90;;;;;;5050787;28;19964;-78
2021/07/08 03:41:14;;;;;;;;;;;15.40;99.90;;;;;;5057393;28;19913;-77
2021/07/08 03:43:40;;;;;;;;;;;15.40;99.90;;;;;;5050807;28;19917;-77
2021/07/08 03:46:05;;;;;;;;;;;15.40;99.90;;;;;;5051173;28;19909;-78
2021/07/08 03:48:31;;;;;;;;;;;15.40;99.90;;;;;;5054089;28;19921;-78
2021/07/08 03:50:56;;;;;;;;;;;15.40;99.90;;;;;;5054811;28;19909;-78
2021/07/08 03:53:22;;;;;;;;;;;15.40;99.90;;;;;;5047228;28;19971;-79
2021/07/08 03:55:47;;;;;;;;;;;15.50;99.90;;;;;;5053247;28;20349;-79
2021/07/08 03:58:13;;;;;;;;;;;15.50;99.90;;;;;;5050462;28;19982;-79
2021/07/08 04:00:39;;;;;;;;;;;15.50;99.90;;;;;;5060158;28;19920;-79
2021/07/08 04:03:06;;;;;;;;;;;15.60;99.90;;;;;;5052355;28;20471;-79
2021/07/08 04:05:32;;;;;;;;;;;15.60;99.90;;;;;;5054914;28;19913;-79
2021/07/08 04:07:58;;;;;;;;;;;15.70;99.90;;;;;;5051751;28;19980;-79
2021/07/08 04:10:23;;;;;;;;;;;15.70;99.90;;;;;;5051194;28;20385;-79
2021/07/08 04:12:49;;;;;;;;;;;15.80;99.90;;;;;;5052455;28;19916;-79
2021/07/08 04:15:14;;;;;;;;;;;15.90;99.90;;;;;;5051755;28;19944;-79
2021/07/08 04:17:40;;;;;;;;;;;16.00;99.90;;;;;;5056740;28;19996;-79
2021/07/08 04:20:07;;;;;;;;;;;16.00;99.90;;;;;;5054419;28;19927;-79
2021/07/08 04:22:33;;;;;;;;;;;16.10;99.90;;;;;;5056684;28;20274;-79
2021/07/08 04:24:58;;;;;;;;;;;16.10;99.90;;;;;;5053696;28;19967;-79
2021/07/08 04:27:24;;;;;;;;;;;16.20;99.90;;;;;;5072827;28;19905;-78
2021/07/08 04:29:49;;;;;;;;;;;16.30;99.90;;;;;;5057600;28;19913;-79
2021/07/08 04:32:14;;;;;;;;;;;16.30;99.90;;;;;;5058726;28;19909;-79
2021/07/08 04:34:41;;;;;;;;;;;16.40;99.90;;;;;;5055013;28;19978;-79
2021/07/08 04:37:06;;;;;;;;;;;16.50;99.90;;;;;;5054905;28;19984;-80
2021/07/08 04:39:32;;;;;;;;;;;16.60;99.90;;;;;;5054977;28;19912;-80
2021/07/08 04:41:57;;;;;;;;;;;16.70;99.90;;;;;;5057334;28;19917;-79
2021/07/08 04:44:23;;;;;;;;;;;16.70;99.90;;;;;;5069722;28;19916;-80
2021/07/08 04:46:48;;;;;;;;;;;16.80;99.90;;;;;;5050210;28;20054;-78
2021/07/08 04:49:14;;;;;;;;;;;16.80;99.90;;;;;;5051762;28;19893;-78
2021/07/08 04:51:39;;;;;;;;;;;16.90;99.90;;;;;;5053546;28;19920;-80
2021/07/08 04:54:05;;;;;;;;;;;16.90;99.90;;;;;;5055854;28;19909;-80
2021/07/08 04:56:30;;;;;;;;;;;16.90;99.90;;;;;;5053782;28;19920;-80
2021/07/08 04:58:56;;;;;;;;;;;17.00;99.90;;;;;;5052888;28;19916;-80
2021/07/08 05:01:21;;;;;;;;;;;17.00;99.90;;;;;;5057234;28;19923;-80
2021/07/08 05:03:47;;;;;;;;;;;17.20;99.90;;;;;;5066323;28;19941;-79
2021/07/08 05:06:12;;;;;;;;;;;17.20;99.90;;;;;;5055375;28;19912;-79
2021/07/08 05:08:40;;;;;;;;;;;17.30;99.90;;;;;;5068020;28;19916;-78
2021/07/08 05:11:06;;;;;;;;;;;17.40;99.90;;;;;;5061558;28;19927;-78
2021/07/08 05:13:31;;;;;;;;;;;17.40;99.90;;;;;;5052826;28;20377;-78
2021/07/08 05:15:57;;;;;;;;;;;17.40;99.90;;;;;;5053406;28;19927;-80
2021/07/08 05:18:22;;;;;;;;;;;17.50;99.90;;;;;;5052241;28;20381;-79
2021/07/08 05:20:49;;;;;;;;;;;17.50;99.90;;;;;;5056276;28;20355;-79
2021/07/08 05:23:20;;;;;;;;;;;17.60;99.90;;;;;;5041059;28;19948;-79
2021/07/08 05:25:46;;;;;;;;;;;17.60;99.90;;;;;;5041118;28;19905;-79
2021/07/08 05:28:12;;;;;;;;;;;17.70;99.90;;;;;;5037884;28;19969;-79
2021/07/08 05:30:38;;;;;;;;;;;17.70;99.90;;;;;;5038328;28;19980;-80
2021/07/08 05:33:04;;;;;;;;;;;17.70;99.90;;;;;;5040179;28;19904;-79
2021/07/08 05:35:29;;;;;;;;;;;17.80;99.90;;;;;;5046539;28;20327;-79
2021/07/08 05:37:55;;;;;;;;;;;17.80;99.90;;;;;;5052749;28;19962;-79
2021/07/08 05:40:20;;;;;;;;;;;17.90;99.90;;;;;;5038745;28;20003;-79
2021/07/08 05:42:46;;;;;;;;;;;17.90;99.90;;;;;;5046203;28;19912;-79
2021/07/08 05:45:11;;;;;;;;;;;17.90;99.90;;;;;;5039312;28;20330;-79
2021/07/08 05:47:37;;;;;;;;;;;18.00;99.90;;;;;;5042178;28;19980;-79
2021/07/08 05:50:03;;;;;;;;;;;18.10;99.90;;;;;;5038969;28;19916;-78
2021/07/08 05:52:29;;;;;;;;;;;18.10;99.90;;;;;;5041636;28;20286;-79
2021/07/08 05:54:54;;;;;;;;;;;18.20;99.90;;;;;;5035317;28;19906;-78
2021/07/08 05:57:20;;;;;;;;;;;18.40;99.90;;;;;;5038729;28;19924;-79
2021/07/08 05:59:45;;;;;;;;;;;18.40;99.90;;;;;;5041645;28;19909;-79
2021/07/08 06:02:11;;;;;;;;;;;18.50;99.90;;;;;;5045858;28;19923;-78
2021/07/08 06:04:36;;;;;;;;;;;18.60;99.90;;;;;;5049656;28;19916;-79
2021/07/08 06:07:02;;;;;;;;;;;18.60;99.90;;;;;;5054597;28;19909;-79
2021/07/08 06:09:28;;;;;;;;;;;18.70;99.90;;;;;;5059876;28;19910;-78
2021/07/08 06:11:53;;;;;;;;;;;18.70;99.90;;;;;;5065519;28;19948;-78
2021/07/08 06:14:19;;;;;;;;;;;18.70;99.90;;;;;;5053990;28;19913;-79
2021/07/08 06:16:44;;;;;;;;;;;18.80;99.90;;;;;;5063746;28;19917;-80
2021/07/08 06:19:10;;;;;;;;;;;18.80;99.90;;;;;;5037783;28;19944;-79
2021/07/08 06:21:35;;;;;;;;;;;18.80;99.90;;;;;;5030455;28;20015;-79
2021/07/08 06:24:01;;;;;;;;;;;18.90;99.90;;;;;;5038627;28;19912;-79
2021/07/08 06:26:26;;;;;;;;;;;19.20;99.90;;;;;;5038341;28;19932;-79
2021/07/08 06:28:52;;;;;;;;;;;19.50;99.90;;;;;;5042730;28;19913;-79
2021/07/08 06:31:17;;;;;;;;;;;20.20;99.90;;;;;;5044659;28;19920;-79
2021/07/08 06:33:44;;;;;;;;;;;22.50;99.90;;;;;;5047219;28;19916;-80
2021/07/08 06:36:10;;;;;;;;;;;24.60;99.90;;;;;;5048493;28;19909;-80
2021/07/08 06:38:36;;;;;;;;;;;24.90;99.90;;;;;;5047077;28;19924;-79
2021/07/08 06:41:01;;;;;;;;;;;25.40;99.90;;;;;;5047410;28;19921;-79
2021/07/08 06:43:27;;;;;;;;;;;26.80;99.90;;;;;;5044052;28;19923;-80
2021/07/08 06:45:52;;;;;;;;;;;28.10;99.30;;;;;;5047901;28;19931;-79
2021/07/08 06:48:17;;;;;;;;;;;29.30;98.30;;;;;;5051763;28;19913;-79
2021/07/08 06:50:44;;;;;;;;;;;30.10;97.50;;;;;;5043197;28;19909;-80
2021/07/08 06:53:10;;;;;;;;;;;30.40;95.60;;;;;;5048116;28;19917;-79
2021/07/08 06:55:36;;;;;;;;;;;30.10;95.80;;;;;;5054405;28;19905;-77
2021/07/08 06:58:02;;;;;;;;;;;29.60;96.10;;;;;;5054333;28;19921;-78
2021/07/08 07:00:37;;;;;;;;;;;28.10;96.20;;;;;;5053527;28;19936;-78
2021/07/08 07:03:03;;;;;;;;;;;26.40;97.00;;;;;;5056524;28;19897;-78
2021/07/08 07:05:29;;;;;;;;;;;24.90;99.10;;;;;;5055312;28;19904;-79
2021/07/08 07:07:55;;;;;;;;;;;23.80;99.90;;;;;;5046157;28;19894;-78
2021/07/08 07:10:23;;;;;;;;;;;23.00;99.90;;;;;;5057398;28;19928;-78
2021/07/08 07:12:49;;;;;;;;;;;22.40;99.90;;;;;;5056272;28;19955;-78
2021/07/08 07:15:16;;;;;;;;;;;21.90;99.90;;;;;;5055511;28;19919;-79
2021/07/08 07:17:41;;;;;;;;;;;21.50;99.90;;;;;;5047024;28;19904;-78
2021/07/08 07:20:08;;;;;;;;;;;21.20;99.90;;;;;;5059672;28;19932;-79
2021/07/08 07:22:34;;;;;;;;;;;22.00;99.90;;;;;;5060915;28;19897;-79
2021/07/08 07:25:00;;;;;;;;;;;23.40;99.90;;;;;;5061293;28;19908;-77
2021/07/08 07:27:26;;;;;;;;;;;24.70;99.90;;;;;;5059545;28;19929;-78
2021/07/08 07:29:51;;;;;;;;;;;25.30;99.70;;;;;;5059327;28;19904;-78
2021/07/08 07:32:17;;;;;;;;;;;25.10;99.50;;;;;;5058860;28;19920;-77
2021/07/08 07:34:42;;;;;;;;;;;24.70;99.90;;;;;;5053688;28;19909;-79
2021/07/08 07:37:07;;;;;;;;;;;23.80;99.90;;;;;;5058906;28;19924;-79
2021/07/08 07:39:33;;;;;;;;;;;23.30;99.90;;;;;;5064066;28;19920;-78
2021/07/08 07:41:58;;;;;;;;;;;23.40;99.90;;;;;;5059029;28;19917;-78
2021/07/08 07:44:24;;;;;;;;;;;23.60;99.90;;;;;;5059383;28;19897;-78
2021/07/08 07:46:50;;;;;;;;;;;23.60;99.90;;;;;;5060266;28;19897;-77
2021/07/08 07:49:16;;;;;;;;;;;22.90;99.90;;;;;;5058941;28;19920;-79
2021/07/08 07:51:42;;;;;;;;;;;22.20;99.90;;;;;;5075135;28;19897;-79
2021/07/08 07:54:07;;;;;;;;;;;21.60;99.90;;;;;;5059031;28;19931;-78
2021/07/08 07:56:32;;;;;;;;;;;21.10;99.90;;;;;;5058648;28;19968;-79
2021/07/08 07:58:58;;;;;;;;;;;20.60;99.90;;;;;;5057600;28;19897;-77
2021/07/08 08:01:23;;;;;;;;;;;20.20;99.90;;;;;;5059190;28;19905;-79
2021/07/08 08:03:50;;;;;;;;;;;19.90;99.90;;;;;;5054296;28;20313;-77
2021/07/08 08:09:00;;;;;;;;;;;19.80;99.90;;;;;;5044862;28;19915;-78
2021/07/08 08:11:25;;;;;;;;;;;19.80;99.90;;;;;;5044303;28;19952;-79
2021/07/08 08:13:51;;;;;;;;;;;19.90;99.90;;;;;;5044044;28;20377;-78
2021/07/08 08:16:16;;;;;;;;;;;20.00;99.90;;;;;;5040542;28;19947;-78
2021/07/08 08:18:42;;;;;;;;;;;20.30;99.90;;;;;;5041561;28;20381;-78
2021/07/08 08:21:07;;;;;;;;;;;20.50;99.90;;;;;;5039878;28;19921;-80
2021/07/08 08:23:33;;;;;;;;;;;20.80;99.90;;;;;;5039878;28;19900;-78
2021/07/08 08:26:00;;;;;;;;;;;21.00;99.90;;;;;;5039002;28;19915;-78
2021/07/08 08:28:26;;;;;;;;;;;21.30;99.90;;;;;;5036519;28;19909;-78
2021/07/08 08:30:52;;;;;;;;;;;21.40;99.90;;;;;;5038559;28;19959;-79
2021/07/08 08:33:17;;;;;;;;;;;21.30;99.90;;;;;;5036945;28;20366;-79
2021/07/08 08:35:43;;;;;;;;;;;21.10;99.90;;;;;;5038060;28;19909;-79
2021/07/08 08:38:08;;;;;;;;;;;20.90;99.90;;;;;;5037148;28;19959;-79
2021/07/08 08:40:34;;;;;;;;;;;20.80;99.90;;;;;;5035220;28;19962;-78
2021/07/08 08:43:00;;;;;;;;;;;20.90;99.90;;;;;;5025783;28;19909;-78
2021/07/08 08:45:25;;;;;;;;;;;21.00;99.90;;;;;;5020524;28;20361;-79
2021/07/08 08:47:54;;;;;;;;;;;21.10;99.90;;;;;;5034534;28;19909;-79
2021/07/08 08:50:19;;;;;;;;;;;21.10;99.90;;;;;;5036035;28;20003;-78
2021/07/08 08:52:46;;;;;;;;;;;21.00;99.90;;;;;;5038398;28;19913;-77
2021/07/08 08:55:11;;;;;;;;;;;21.10;99.90;;;;;;5036613;28;19916;-79
2021/07/08 08:57:39;;;;;;;;;;;21.10;99.90;;;;;;5035446;28;19920;-79
2021/07/08 09:00:24;;;;;;;;;;;21.10;99.90;;;;;;5035216;28;20010;-75
2021/07/08 09:03:00;;;;;;;;;;;21.00;99.90;;;;;;5040318;28;19909;-78
2021/07/08 09:05:25;;;;;;;;;;;21.10;99.90;;;;;;5035222;28;20317;-77
2021/07/08 09:07:51;;;;;;;;;;;21.00;99.90;;;;;;5035420;28;19955;-78
2021/07/08 09:10:16;;;;;;;;;;;20.90;99.90;;;;;;5033684;28;19917;-79
2021/07/08 09:12:43;;;;;;;;;;;20.90;99.90;;;;;;5035338;28;19908;-77
2021/07/08 09:15:19;;;;;;;;;;;21.00;99.90;;;;;;5034908;28;19909;-76
2021/07/08 09:17:45;;;;;;;;;;;21.50;99.90;;;;;;5033040;28;19913;-76
2021/07/08 09:20:12;;;;;;;;;;;21.70;99.90;;;;;;5035166;28;19912;-77
2021/07/08 09:22:38;;;;;;;;;;;22.20;99.90;;;;;;5037313;28;19999;-77
2021/07/08 09:25:22;;;;;;;;;;;22.60;99.90;;;;;;5035131;28;19951;-77
2021/07/08 09:27:48;;;;;;;;;;;22.80;99.90;;;;;;5032620;28;19927;-77
2021/07/08 09:30:27;;;;;;;;;;;23.20;99.90;;;;;;5034747;28;19909;-77
2021/07/08 09:32:53;;;;;;;;;;;23.20;99.90;;;;;;5043618;28;19909;-77
2021/07/08 09:35:34;;;;;;;;;;;23.50;99.90;;;;;;5037218;28;19913;-79
2021/07/08 09:38:10;;;;;;;;;;;23.30;99.90;;;;;;5024888;28;19916;-77
2021/07/08 09:40:36;;;;;;;;;;;23.00;99.90;;;;;;5033256;28;19913;-78
2021/07/08 09:43:01;;;;;;;;;;;23.10;99.90;;;;;;5022979;28;19996;-78
2021/07/08 09:45:27;;;;;;;;;;;23.00;99.90;;;;;;5034393;28;20422;-78
2021/07/08 09:48:07;;;;;;;;;;;22.80;99.90;;;;;;5041920;28;20004;-77
2021/07/08 09:50:32;;;;;;;;;;;23.00;99.90;;;;;;5032862;28;20056;-77
2021/07/08 09:53:06;;;;;;;;;;;23.40;99.90;;;;;;5033293;28;20005;-78
2021/07/08 09:55:57;;;;;;;;;;;23.70;99.90;;;;;;5034497;28;20378;-78
2021/07/08 09:58:24;;;;;;;;;;;23.70;99.90;;;;;;5034284;28;19913;-78
2021/07/08 10:00:50;;;;;;;;;;;23.80;99.90;;;;;;5032226;28;19916;-77
2021/07/08 10:03:15;;;;;;;;;;;23.90;99.90;;;;;;5033105;28;19916;-77
2021/07/08 10:05:41;;;;;;;;;;;24.40;99.90;;;;;;5034839;28;19909;-76
2021/07/08 10:08:08;;;;;;;;;;;25.10;99.90;;;;;;5034067;28;19909;-78
2021/07/08 10:10:33;;;;;;;;;;;25.70;99.90;;;;;;5032900;28;19909;-78
2021/07/08 10:12:59;;;;;;;;;;;26.70;99.40;;;;;;5032570;28;19915;-78
2021/07/08 10:15:26;;;;;;;;;;;27.50;99.00;;;;;;5033456;28;19915;-78
2021/07/08 10:17:52;;;;;;;;;;;28.00;98.00;;;;;;5036503;28;19931;-78
2021/07/08 10:20:18;;;;;;;;;;;27.40;97.70;;;;;;5034216;28;19917;-78
2021/07/08 10:22:43;;;;;;;;;;;27.40;98.40;;;;;;5035620;28;19909;-77
2021/07/08 10:25:10;;;;;;;;;;;27.60;98.20;;;;;;5034022;28;20293;-77
2021/07/08 10:27:36;;;;;;;;;;;27.90;96.90;;;;;;5033936;28;19909;-78
2021/07/08 10:30:02;;;;;;;;;;;28.00;96.60;;;;;;5032362;28;19916;-77
2021/07/08 10:32:28;;;;;;;;;;;28.30;97.40;;;;;;5032224;28;19940;-78
2021/07/08 10:34:54;;;;;;;;;;;27.70;96.40;;;;;;5014804;28;19909;-77
2021/07/08 10:37:26;;;;;;;;;;;27.20;97.30;;;;;;5018415;28;19909;-77
2021/07/08 10:39:52;;;;;;;;;;;26.70;97.60;;;;;;5033121;28;19948;-77
2021/07/08 10:42:37;;;;;;;;;;;26.10;98.30;;;;;;5041821;28;20018;-75
2021/07/08 10:45:03;;;;;;;;;;;26.00;99.00;;;;;;5048742;28;19909;-77
2021/07/08 10:47:30;;;;;;;;;;;26.10;97.50;;;;;;5056142;28;19908;-78
2021/07/08 10:49:56;;;;;;;;;;;26.00;98.10;;;;;;5053668;28;20277;-78
2021/07/08 10:52:39;;;;;;;;;;;26.10;98.50;;;;;;5054075;28;19915;-77
2021/07/08 10:55:05;;;;;;;;;;;26.50;98.50;;;;;;5055884;28;20343;-78
2021/07/08 10:57:37;;;;;;;;;;;26.80;96.90;;;;;;5058194;28;19919;-78
2021/07/08 11:00:07;;;;;;;;;;;26.90;96.70;;;;;;5057805;28;19908;-78
2021/07/08 11:02:49;;;;;;;;;;;26.90;96.30;;;;;;5057303;28;19912;-77
2021/07/08 11:05:35;;;;;;;;;;;26.80;97.10;;;;;;5057019;28;19916;-77
2021/07/08 11:08:01;;;;;;;;;;;26.60;95.90;;;;;;5057736;28;19909;-78
2021/07/08 11:10:33;;;;;;;;;;;26.10;97.40;;;;;;5058428;28;20019;-77
2021/07/08 11:13:18;;;;;;;;;;;26.00;97.70;;;;;;5041554;28;20273;-77
2021/07/08 11:15:54;;;;;;;;;;;26.10;98.00;;;;;;5044603;28;19999;-78
2021/07/08 11:18:30;;;;;;;;;;;26.20;98.20;;;;;;5047231;28;19995;-78
2021/07/08 11:20:56;;;;;;;;;;;26.40;98.00;;;;;;5040897;28;19960;-78
2021/07/08 11:23:38;;;;;;;;;;;26.30;98.40;;;;;;5036191;28;20011;-78
2021/07/08 11:26:04;;;;;;;;;;;25.60;97.60;;;;;;5042846;28;19909;-78
2021/07/08 11:28:30;;;;;;;;;;;25.00;98.90;;;;;;5037134;28;19916;-78
2021/07/08 11:30:57;;;;;;;;;;;24.60;98.90;;;;;;5036261;28;19927;-77
2021/07/08 11:33:22;;;;;;;;;;;24.30;99.90;;;;;;5044542;28;20387;-78
2021/07/08 11:35:55;;;;;;;;;;;24.20;99.50;;;;;;5038588;28;19909;-78
2021/07/08 11:38:23;;;;;;;;;;;24.30;99.90;;;;;;5036762;28;19913;-79
2021/07/08 11:40:49;;;;;;;;;;;24.50;99.90;;;;;;5041349;28;19917;-78
2021/07/08 11:43:27;;;;;;;;;;;24.60;99.90;;;;;;5041836;28;19917;-77
2021/07/08 11:45:54;;;;;;;;;;;24.60;99.50;;;;;;5046985;28;19909;-78
2021/07/08 11:48:27;;;;;;;;;;;24.70;99.30;;;;;;5052658;28;19909;-78
2021/07/08 11:50:53;;;;;;;;;;;24.80;99.60;;;;;;5049151;28;19909;-77
2021/07/08 11:53:20;;;;;;;;;;;25.10;99.30;;;;;;5038142;28;20357;-78
2021/07/08 11:55:46;;;;;;;;;;;25.60;98.20;;;;;;5041286;28;19909;-78
2021/07/08 11:58:13;;;;;;;;;;;25.80;98.30;;;;;;5040472;28;20396;-78
2021/07/08 12:00:43;;;;;;;;;;;26.10;98.20;;;;;;5040892;28;19924;-78
2021/07/08 12:03:22;;;;;;;;;;;26.10;97.30;;;;;;5055351;28;19948;-78
2021/07/08 12:05:51;;;;;;;;;;;26.20;97.00;;;;;;5041261;28;19923;-79
2021/07/08 12:08:24;;;;;;;;;;;26.10;97.80;;;;;;5055426;28;20057;-78
2021/07/08 12:11:08;;;;;;;;;;;26.10;98.00;;;;;;5037370;28;19970;-79
2021/07/08 12:13:37;;;;;;;;;;;26.10;97.40;;;;;;5037711;28;19916;-79
2021/07/08 12:16:07;;;;;;;;;;;25.70;96.90;;;;;;5037656;28;19931;-79
2021/07/08 12:18:43;;;;;;;;;;;25.20;97.20;;;;;;5047993;28;19909;-78
2021/07/08 12:21:21;;;;;;;;;;;24.80;99.00;;;;;;5036660;28;20299;-79
2021/07/08 12:23:46;;;;;;;;;;;24.40;99.40;;;;;;5053456;28;19909;-79
2021/07/08 12:26:21;;;;;;;;;;;23.80;99.90;;;;;;5057389;28;19909;-79
2021/07/08 12:28:46;;;;;;;;;;;23.60;99.90;;;;;;5037749;28;19909;-77
2021/07/08 12:31:12;;;;;;;;;;;23.50;99.90;;;;;;5040644;28;19996;-77
2021/07/08 12:33:51;;;;;;;;;;;23.40;99.90;;;;;;5036758;28;19913;-79
2021/07/08 12:36:16;;;;;;;;;;;23.50;99.90;;;;;;5048942;28;20265;-74
2021/07/08 12:38:42;;;;;;;;;;;23.50;99.90;;;;;;5036207;28;19909;-79
2021/07/08 12:41:08;;;;;;;;;;;23.60;99.90;;;;;;5036306;28;20355;-79
2021/07/08 12:43:33;;;;;;;;;;;23.70;99.90;;;;;;5035690;28;19909;-79
2021/07/08 12:46:07;;;;;;;;;;;23.70;99.90;;;;;;5046899;28;19962;-79
2021/07/08 12:48:33;;;;;;;;;;;23.80;99.90;;;;;;5041910;28;20445;-78
2021/07/08 12:50:58;;;;;;;;;;;23.70;99.90;;;;;;5036173;28;19964;-79
2021/07/08 12:53:24;;;;;;;;;;;23.50;99.90;;;;;;5040340;28;19909;-79
2021/07/08 12:55:52;;;;;;;;;;;23.20;99.90;;;;;;5036170;28;19917;-78
2021/07/08 12:58:25;;;;;;;;;;;23.10;99.90;;;;;;5037355;28;20015;-79
2021/07/08 13:00:52;;;;;;;;;;;23.00;99.90;;;;;;5043928;28;20365;-77
2021/07/08 13:03:22;;;;;;;;;;;23.20;99.90;;;;;;5038031;28;20281;-78
2021/07/08 13:05:48;;;;;;;;;;;23.30;99.90;;;;;;5036488;28;19967;-79
2021/07/08 13:08:15;;;;;;;;;;;23.10;99.90;;;;;;5033294;28;19916;-79
2021/07/08 13:10:43;;;;;;;;;;;23.00;99.90;;;;;;5033895;28;19909;-79
2021/07/08 13:13:09;;;;;;;;;;;23.20;99.90;;;;;;5034143;28;20013;-78
2021/07/08 13:15:41;;;;;;;;;;;23.40;99.90;;;;;;5035249;28;20043;-78
2021/07/08 13:18:08;;;;;;;;;;;23.80;99.90;;;;;;5034935;28;19909;-78
2021/07/08 13:20:35;;;;;;;;;;;24.10;99.90;;;;;;5035168;28;20308;-78
2021/07/08 13:23:21;;;;;;;;;;;24.00;99.90;;;;;;5047652;28;19904;-78
2021/07/08 13:25:48;;;;;;;;;;;23.90;99.90;;;;;;5040175;28;19936;-77
2021/07/08 13:28:20;;;;;;;;;;;24.20;99.90;;;;;;5041962;28;19916;-78
2021/07/08 13:30:56;;;;;;;;;;;24.00;99.90;;;;;;5046021;28;19963;-77
2021/07/08 13:33:31;;;;;;;;;;;23.60;99.90;;;;;;5035477;28;20283;-77
2021/07/08 13:36:03;;;;;;;;;;;23.30;99.90;;;;;;5035159;28;19908;-77
2021/07/08 13:38:35;;;;;;;;;;;23.30;99.90;;;;;;5034700;28;19905;-76
2021/07/08 13:41:10;;;;;;;;;;;23.60;99.90;;;;;;5034439;28;19909;-76
2021/07/08 13:43:38;;;;;;;;;;;24.10;99.90;;;;;;5034234;28;20349;-77
2021/07/08 13:46:11;;;;;;;;;;;24.50;99.90;;;;;;5036753;28;19909;-77
2021/07/08 13:48:37;;;;;;;;;;;24.60;99.90;;;;;;5056459;28;19947;-77
2021/07/08 13:51:06;;;;;;;;;;;24.50;99.90;;;;;;5055343;28;19905;-77
2021/07/08 13:53:32;;;;;;;;;;;24.40;99.90;;;;;;5054690;28;19905;-77
2021/07/08 13:55:57;;;;;;;;;;;24.40;99.90;;;;;;5036771;28;19913;-78
2021/07/08 13:58:23;;;;;;;;;;;24.40;99.90;;;;;;5034427;28;19912;-78
2021/07/08 14:00:48;;;;;;;;;;;24.00;99.90;;;;;;5033143;28;20285;-77
2021/07/08 14:03:14;;;;;;;;;;;23.80;99.90;;;;;;5035849;28;19908;-78
2021/07/08 14:05:39;;;;;;;;;;;23.70;99.90;;;;;;5034268;28;19905;-79
2021/07/08 14:08:05;;;;;;;;;;;23.70;99.90;;;;;;5035474;28;19954;-79
2021/07/08 14:10:30;;;;;;;;;;;23.60;99.90;;;;;;5034444;28;19928;-78
2021/07/08 14:12:56;;;;;;;;;;;23.70;99.90;;;;;;5035295;28;19924;-79
2021/07/08 14:15:21;;;;;;;;;;;23.80;99.90;;;;;;5044057;28;19909;-79
2021/07/08 14:17:47;;;;;;;;;;;23.90;99.90;;;;;;5053944;28;20342;-78
2021/07/08 14:20:12;;;;;;;;;;;24.20;99.90;;;;;;5052517;28;20369;-80
2021/07/08 14:22:38;;;;;;;;;;;24.40;99.90;;;;;;5042524;28;19924;-77